Time;durP1;ratioP1;P1;durP2;ratioP2;P2;SDS_P1;SDS_P2;PMS_P1;PMS_P2;Temp;Humidity;BMP_temperature;BMP_pressure;BME280_temperature;BME280_humidity;BME280_pressure;Samples;Min_cycle;Max_cycle;Signal;HPM_P1;HPM_P2
2022/03/24 00:00:10;;;;;;;18.10;8.05;;;;;;;6.58;39.86;100929.22;4491440;31;33556;-84
2022/03/24 00:02:39;;;;;;;24.08;9.43;;;;;;;6.82;39.14;100939.47;4479343;31;32630;-84
2022/03/24 00:05:08;;;;;;;21.00;8.27;;;;;;;6.56;39.25;100936.25;4478120;31;32976;-84
2022/03/24 00:07:36;;;;;;;17.58;8.02;;;;;;;6.47;39.12;100926.69;4478278;31;33115;-84
2022/03/24 00:10:05;;;;;;;14.10;7.18;;;;;;;6.31;39.46;100925.94;4492222;31;32820;-84
2022/03/24 00:12:34;;;;;;;15.88;9.02;;;;;;;6.22;39.70;100920.78;4489899;31;34113;-84
2022/03/24 00:15:03;;;;;;;16.58;8.65;;;;;;;6.34;39.58;100917.19;4477719;31;32099;-84
2022/03/24 00:17:32;;;;;;;22.25;10.45;;;;;;;6.50;39.50;100918.78;4483660;31;32893;-84
2022/03/24 00:20:00;;;;;;;22.23;10.93;;;;;;;6.51;39.27;100910.03;4479028;31;34682;-84
2022/03/24 00:22:28;;;;;;;29.45;10.23;;;;;;;6.56;39.32;100907.38;4477597;31;33463;-82
2022/03/24 00:24:56;;;;;;;17.48;8.65;;;;;;;6.55;39.25;100905.63;4477644;31;33145;-82
2022/03/24 00:27:23;;;;;;;16.85;8.30;;;;;;;6.52;38.99;100895.16;4489670;31;33644;-81
2022/03/24 00:29:51;;;;;;;17.65;7.75;;;;;;;6.57;39.04;100896.00;4463711;31;33057;-81
2022/03/24 00:32:18;;;;;;;17.55;7.78;;;;;;;6.55;38.85;100893.41;4489678;31;33757;-81
2022/03/24 00:34:46;;;;;;;14.40;6.70;;;;;;;6.61;38.77;100895.09;4477892;31;33195;-81
2022/03/24 00:37:14;;;;;;;11.90;6.32;;;;;;;6.65;38.97;100889.78;4484063;31;33609;-81
2022/03/24 00:39:42;;;;;;;12.98;6.40;;;;;;;6.48;38.96;100882.97;4476530;31;33964;-82
2022/03/24 00:42:11;;;;;;;15.68;5.85;;;;;;;6.35;39.25;100877.81;4476650;31;32745;-82
2022/03/24 00:44:42;;;;;;;11.12;5.65;;;;;;;6.47;39.08;100876.84;4490534;31;32713;-82
2022/03/24 00:47:13;;;;;;;12.50;5.78;;;;;;;6.58;38.78;100877.59;4465610;31;33159;-82
2022/03/24 00:49:42;;;;;;;12.07;5.82;;;;;;;6.47;39.31;100873.34;4476785;31;32626;-81
2022/03/24 00:52:11;;;;;;;11.05;5.90;;;;;;;6.40;39.47;100872.53;4478707;31;32670;-81
2022/03/24 00:54:38;;;;;;;9.18;5.30;;;;;;;6.37;39.58;100870.81;4477395;31;33408;-81
2022/03/24 00:57:07;;;;;;;11.12;5.25;;;;;;;6.06;39.95;100879.81;4479551;31;33159;-82
2022/03/24 00:59:37;;;;;;;14.38;5.85;;;;;;;5.83;40.35;100872.97;4478193;31;32384;-82
2022/03/24 01:02:09;;;;;;;13.10;5.93;;;;;;;5.80;40.88;100866.91;4489405;31;33868;-81
2022/03/24 01:04:40;;;;;;;15.70;6.25;;;;;;;5.84;40.50;100869.50;4491974;31;33623;-81
2022/03/24 01:07:07;;;;;;;14.95;6.15;;;;;;;5.87;40.65;100863.34;4491652;31;34175;-81
2022/03/24 01:09:35;;;;;;;13.18;6.25;;;;;;;5.87;40.62;100864.19;4476214;31;32902;-82
2022/03/24 01:12:03;;;;;;;15.90;6.32;;;;;;;6.04;40.53;100855.38;4487185;31;33038;-82
2022/03/24 01:14:35;;;;;;;14.00;5.82;;;;;;;6.08;40.47;100854.47;4465817;31;32822;-82
2022/03/24 01:17:05;;;;;;;13.52;6.22;;;;;;;6.06;40.39;100849.22;4492469;31;33849;-82
2022/03/24 01:19:33;;;;;;;14.25;6.78;;;;;;;6.05;39.98;100851.88;4488822;31;33760;-82
2022/03/24 01:22:00;;;;;;;17.85;5.95;;;;;;;5.94;40.30;100848.47;4491590;31;34196;-81
2022/03/24 01:24:29;;;;;;;12.00;6.43;;;;;;;5.93;40.54;100846.72;4481228;31;33157;-81
2022/03/24 01:26:56;;;;;;;13.15;5.50;;;;;;;5.74;40.77;100840.72;4476589;31;33162;-81
2022/03/24 01:29:25;;;;;;;14.35;6.20;;;;;;;5.78;41.01;100842.44;4492704;31;34745;-81
2022/03/24 01:31:54;;;;;;;12.93;6.47;;;;;;;5.70;41.02;100839.88;4476889;31;33133;-81
2022/03/24 01:34:21;;;;;;;14.63;6.72;;;;;;;5.81;40.81;100835.44;4481666;31;33332;-81
2022/03/24 01:36:50;;;;;;;15.30;5.85;;;;;;;5.90;40.42;100843.22;4489590;31;32676;-81
2022/03/24 01:39:18;;;;;;;16.62;5.93;;;;;;;5.95;40.06;100834.50;4488317;31;33597;-81
2022/03/24 01:41:46;;;;;;;10.38;4.97;;;;;;;6.01;39.75;100834.44;4491294;31;33610;-82
2022/03/24 01:44:17;;;;;;;17.77;6.10;;;;;;;5.95;40.11;100837.09;4493009;31;33605;-81
2022/03/24 01:47:05;;;;;;;19.80;7.03;;;;;;;5.93;40.10;100831.84;4481337;31;33692;-82
2022/03/24 01:49:44;;;;;;;15.73;5.70;;;;;;;5.84;40.72;100832.78;4481562;31;33985;-82
2022/03/24 01:52:18;;;;;;;11.60;5.50;;;;;;;5.86;40.31;100823.16;4491607;31;34383;-83
2022/03/24 01:54:49;;;;;;;11.65;5.37;;;;;;;5.65;41.03;100828.56;4488595;31;33664;-82
2022/03/24 01:57:19;;;;;;;19.30;5.78;;;;;;;5.68;40.94;100820.66;4492787;31;33607;-82
2022/03/24 01:59:49;;;;;;;12.27;5.32;;;;;;;5.53;40.72;100824.28;4480263;31;33201;-82
2022/03/24 02:02:16;;;;;;;10.10;6.12;;;;;;;5.49;40.68;100821.69;4491147;31;34293;-82
2022/03/24 02:04:45;;;;;;;12.70;5.22;;;;;;;5.36;41.33;100819.16;4492007;31;32306;-83
2022/03/24 02:07:13;;;;;;;14.63;5.45;;;;;;;5.49;41.42;100813.81;4490216;31;34756;-82
2022/03/24 02:09:41;;;;;;;8.57;5.80;;;;;;;5.49;41.59;100816.44;4490406;31;33571;-83
2022/03/24 02:12:13;;;;;;;10.68;5.15;;;;;;;5.43;41.51;100814.75;4492032;31;32246;-81
2022/03/24 02:14:42;;;;;;;9.88;4.93;;;;;;;5.53;41.17;100812.94;4492199;31;33707;-84
2022/03/24 02:17:11;;;;;;;13.20;4.28;;;;;;;5.44;41.28;100805.12;4490843;31;33750;-82
2022/03/24 02:19:40;;;;;;;12.07;4.70;;;;;;;5.24;41.81;100807.88;4491479;31;35272;-82
2022/03/24 02:22:09;;;;;;;14.05;5.53;;;;;;;5.39;41.31;100810.41;4478348;31;34099;-82
2022/03/24 02:24:37;;;;;;;11.15;4.80;;;;;;;5.44;41.64;100805.12;4479374;31;33282;-82
2022/03/24 02:27:05;;;;;;;8.25;4.85;;;;;;;5.49;41.56;100801.59;4478305;31;33900;-82
2022/03/24 02:29:33;;;;;;;12.82;5.35;;;;;;;5.31;41.72;100799.09;4477853;31;32905;-82
2022/03/24 02:32:02;;;;;;;9.30;4.90;;;;;;;4.81;42.85;100816.81;4490743;31;33576;-82
2022/03/24 02:34:47;;;;;;;12.93;5.80;;;;;;;5.02;42.42;100807.97;4490855;31;33464;-82
2022/03/24 02:37:20;;;;;;;10.75;4.78;;;;;;;5.13;42.38;100815.81;4490129;31;33590;-82
2022/03/24 02:39:52;;;;;;;;;;;;;;;5.31;41.90;100799.09;4466042;31;34227;-82
2022/03/24 02:42:22;;;;;;;7.72;4.07;;;;;;;5.19;42.34;100815.75;4478145;31;35183;-82
2022/03/24 02:44:55;;;;;;;10.25;4.93;;;;;;;5.25;42.22;100809.59;4476004;31;33502;-82
2022/03/24 02:47:23;;;;;;;10.90;5.40;;;;;;;4.65;43.43;100812.50;4478922;31;32828;-82
2022/03/24 02:49:53;;;;;;;14.43;5.68;;;;;;;4.82;43.04;100809.81;4478678;31;33629;-82
2022/03/24 02:52:20;;;;;;;12.07;4.78;;;;;;;5.01;42.69;100810.63;4480234;31;34573;-82
2022/03/24 02:54:48;;;;;;;19.10;5.50;;;;;;;5.11;42.66;100807.06;4477808;31;33466;-81
2022/03/24 02:57:16;;;;;;;11.02;4.80;;;;;;;5.30;42.06;100803.47;4478896;31;33255;-81
2022/03/24 02:59:44;;;;;;;9.00;5.07;;;;;;;5.32;41.76;100817.44;4490916;31;33896;-81
2022/03/24 03:02:14;;;;;;;11.95;5.20;;;;;;;5.25;41.95;100807.00;4490882;31;33061;-81
2022/03/24 03:04:44;;;;;;;10.93;5.40;;;;;;;4.94;42.42;100808.88;4492204;31;32986;-83
2022/03/24 03:07:13;;;;;;;11.05;4.60;;;;;;;5.22;41.75;100807.91;4490917;31;33991;-83
2022/03/24 03:09:43;;;;;;;14.87;6.40;;;;;;;5.29;41.37;100812.19;4490152;31;33571;-82
2022/03/24 03:12:11;;;;;;;11.80;5.00;;;;;;;5.09;42.02;100814.94;4478605;31;33875;-83
2022/03/24 03:14:40;;;;;;;16.33;5.25;;;;;;;5.20;41.89;100812.25;4460979;31;32759;-82
2022/03/24 03:17:08;;;;;;;12.70;6.45;;;;;;;5.05;42.14;100802.75;4490224;31;34206;-83
2022/03/24 03:19:39;;;;;;;12.50;5.53;;;;;;;5.16;42.09;100800.06;4492664;31;34701;-83
2022/03/24 03:22:07;;;;;;;11.45;5.40;;;;;;;5.22;41.40;100802.66;4477520;31;33130;-82
2022/03/24 03:24:35;;;;;;;10.57;5.57;;;;;;;5.21;41.31;100789.56;4478488;31;32719;-82
2022/03/24 03:27:04;;;;;;;10.02;5.85;;;;;;;5.08;41.69;100787.03;4477842;31;33669;-84
2022/03/24 03:29:32;;;;;;;10.98;6.12;;;;;;;4.91;42.00;100794.09;4479910;31;32662;-84
2022/03/24 03:32:00;;;;;;;19.37;6.37;;;;;;;4.99;42.02;100794.06;4490751;31;34672;-84
2022/03/24 03:34:28;;;;;;;13.82;6.05;;;;;;;5.16;41.18;100783.47;4478332;31;34408;-84
2022/03/24 03:36:56;;;;;;;12.48;5.85;;;;;;;4.93;41.81;100786.22;4491025;31;33977;-84
2022/03/24 03:39:24;;;;;;;16.25;5.70;;;;;;;4.82;42.26;100781.91;4491143;31;34517;-83
2022/03/24 03:41:52;;;;;;;14.45;6.65;;;;;;;4.92;42.15;100784.47;4465186;31;34287;-83
2022/03/24 03:44:20;;;;;;;16.62;5.55;;;;;;;4.88;42.12;100778.38;4490244;31;32044;-83
2022/03/24 03:46:48;;;;;;;10.75;5.28;;;;;;;5.19;41.33;100776.47;4479640;31;33409;-83
2022/03/24 03:49:16;;;;;;;10.40;5.03;;;;;;;5.17;41.30;100769.50;4465303;31;33250;-82
2022/03/24 03:51:44;;;;;;;14.90;5.07;;;;;;;5.26;41.58;100772.94;4478426;31;33586;-82
2022/03/24 03:54:12;;;;;;;11.80;5.43;;;;;;;5.04;41.62;100784.44;4478440;31;33190;-83
2022/03/24 03:56:40;;;;;;;9.52;4.90;;;;;;;5.11;42.03;100786.13;4492581;31;33782;-83
2022/03/24 03:59:08;;;;;;;8.32;4.68;;;;;;;5.18;41.98;100776.50;4477997;31;33706;-82
2022/03/24 04:01:36;;;;;;;15.65;6.05;;;;;;;5.34;41.94;100773.75;4478759;31;33371;-82
2022/03/24 04:04:06;;;;;;;11.95;5.20;;;;;;;5.35;41.75;100777.25;4476595;31;32119;-82
2022/03/24 04:06:33;;;;;;;10.95;4.57;;;;;;;5.42;41.39;100773.72;4477900;31;33426;-82
2022/03/24 04:09:01;;;;;;;9.77;4.82;;;;;;;5.17;41.77;100770.38;4476886;31;33079;-82
2022/03/24 04:11:29;;;;;;;11.00;5.65;;;;;;;5.20;41.55;100770.38;4491272;31;33451;-82
2022/03/24 04:13:56;;;;;;;16.23;5.70;;;;;;;5.25;41.44;100763.34;4492139;31;33508;-82
2022/03/24 04:16:24;;;;;;;11.32;5.80;;;;;;;5.22;41.26;100766.00;4491203;31;34212;-82
2022/03/24 04:18:52;;;;;;;11.55;5.93;;;;;;;5.14;41.94;100770.41;4477164;31;33836;-82
2022/03/24 04:21:19;;;;;;;13.60;5.75;;;;;;;5.38;41.58;100772.87;4479718;31;33066;-82
2022/03/24 04:23:49;;;;;;;16.95;6.40;;;;;;;5.24;41.68;100772.09;4491289;31;33533;-82
2022/03/24 04:26:17;;;;;;;14.85;6.28;;;;;;;5.05;42.22;100778.31;4490412;31;34344;-81
2022/03/24 04:28:45;;;;;;;10.80;5.57;;;;;;;4.93;42.42;100778.38;4490153;31;34172;-82
2022/03/24 04:31:12;;;;;;;17.45;6.95;;;;;;;4.98;42.40;100779.22;4478598;31;34194;-82
2022/03/24 04:33:40;;;;;;;15.70;5.97;;;;;;;4.70;42.75;100774.12;4478396;31;33919;-82
2022/03/24 04:36:09;;;;;;;19.20;6.28;;;;;;;4.76;42.96;100766.25;4477749;31;32603;-82
2022/03/24 04:38:37;;;;;;;10.98;5.00;;;;;;;4.94;42.58;100767.00;4493428;31;35182;-82
2022/03/24 04:41:05;;;;;;;14.98;6.53;;;;;;;5.10;42.27;100764.31;4491458;31;33843;-82
2022/03/24 04:43:34;;;;;;;13.43;7.05;;;;;;;5.30;41.97;100766.78;4490902;31;32657;-83
2022/03/24 04:46:02;;;;;;;14.07;6.00;;;;;;;5.18;42.17;100758.19;4490576;31;33600;-83
2022/03/24 04:48:36;;;;;;;12.37;5.90;;;;;;;5.13;42.15;100763.44;4464784;31;32768;-82
2022/03/24 04:51:05;;;;;;;13.95;7.25;;;;;;;5.11;41.94;100766.03;4491315;31;33613;-83
2022/03/24 04:53:34;;;;;;;16.60;6.60;;;;;;;5.21;41.59;100760.75;4479682;31;32932;-83
2022/03/24 04:56:02;;;;;;;16.37;6.57;;;;;;;5.33;41.29;100761.56;4466011;31;34143;-82
2022/03/24 04:58:30;;;;;;;12.77;6.25;;;;;;;5.01;42.47;100753.91;4488898;31;33586;-83
2022/03/24 05:00:59;;;;;;;16.42;7.25;;;;;;;4.99;42.14;100767.88;4489286;31;34655;-82
2022/03/24 05:03:26;;;;;;;20.88;7.07;;;;;;;4.97;42.51;100767.88;4488863;31;33456;-82
2022/03/24 05:05:55;;;;;;;14.68;7.12;;;;;;;4.67;42.83;100774.12;4487896;31;33278;-82
2022/03/24 05:08:22;;;;;;;12.77;5.85;;;;;;;4.62;43.16;100766.31;4475648;31;34725;-83
2022/03/24 05:10:50;;;;;;;15.07;6.85;;;;;;;4.82;42.93;100768.81;4491007;31;33894;-83
2022/03/24 05:13:18;;;;;;;14.10;6.80;;;;;;;5.31;42.42;100763.28;4463160;31;32703;-83
2022/03/24 05:15:46;;;;;;;13.38;6.40;;;;;;;5.09;42.72;100761.72;4490291;31;33781;-83
2022/03/24 05:18:13;;;;;;;12.95;7.43;;;;;;;4.97;42.69;100761.78;4490343;31;33695;-82
2022/03/24 05:20:41;;;;;;;13.88;6.12;;;;;;;5.05;43.52;100760.84;4489477;31;34528;-83
2022/03/24 05:23:09;;;;;;;12.25;5.95;;;;;;;5.39;42.29;100766.75;4491555;31;33307;-82
2022/03/24 05:25:37;;;;;;;20.70;7.03;;;;;;;5.54;42.16;100754.41;4475643;31;32790;-81
2022/03/24 05:28:04;;;;;;;21.27;8.27;;;;;;;5.82;42.01;100761.16;4477859;31;33069;-83
2022/03/24 05:30:34;;;;;;;19.87;8.15;;;;;;;6.00;42.34;100760.16;4489055;31;32866;-83
2022/03/24 05:33:03;;;;;;;16.50;7.30;;;;;;;5.74;42.25;100762.97;4474867;31;33187;-83
2022/03/24 05:35:35;;;;;;;14.23;7.12;;;;;;;5.53;42.62;100763.16;4477070;31;33812;-83
2022/03/24 05:38:03;;;;;;;20.58;8.52;;;;;;;5.84;42.02;100758.50;4478372;31;33754;-83
2022/03/24 05:40:31;;;;;;;19.25;8.30;;;;;;;5.67;42.29;100760.44;4491389;31;33420;-82
2022/03/24 05:42:59;;;;;;;14.10;7.60;;;;;;;6.12;42.11;100754.81;4478087;31;32924;-82
2022/03/24 05:45:27;;;;;;;15.77;8.38;;;;;;;6.22;42.96;100765.16;4489765;31;33819;-82
2022/03/24 05:47:56;;;;;;;13.70;7.80;;;;;;;6.41;42.33;100756.25;4459986;31;33302;-82
2022/03/24 05:50:26;;;;;;;20.90;8.35;;;;;;;6.57;41.47;100756.91;4474218;31;33467;-83
2022/03/24 05:53:02;;;;;;;15.00;7.47;;;;;;;6.64;40.78;100758.56;4490216;31;33354;-83
2022/03/24 05:55:30;;;;;;;14.90;8.07;;;;;;;6.82;40.71;100758.34;4477639;31;32998;-83
2022/03/24 05:57:58;;;;;;;23.92;9.82;;;;;;;7.21;40.64;100753.41;4475578;31;33303;-83
2022/03/24 06:00:26;;;;;;;18.42;8.63;;;;;;;7.31;41.89;100752.41;4477113;31;33728;-84
2022/03/24 06:02:54;;;;;;;14.60;7.05;;;;;;;7.33;41.78;100757.62;4464394;31;32566;-83
2022/03/24 06:05:23;;;;;;;20.25;8.27;;;;;;;7.52;39.69;100755.59;4488958;31;34129;-82
2022/03/24 06:07:51;;;;;;;18.25;8.77;;;;;;;7.31;39.62;100756.78;4483195;31;33893;-82
2022/03/24 06:10:19;;;;;;;17.05;7.95;;;;;;;7.69;38.72;100753.53;4487884;31;34566;-83
2022/03/24 06:12:47;;;;;;;17.02;8.02;;;;;;;7.88;37.05;100754.09;4477855;31;36104;-82
2022/03/24 06:15:15;;;;;;;31.60;11.23;;;;;;;8.25;38.48;100748.16;4489351;31;33473;-82
2022/03/24 06:17:43;;;;;;;15.38;8.40;;;;;;;8.46;39.75;100747.81;4479817;31;33507;-82
2022/03/24 06:20:11;;;;;;;20.83;7.97;;;;;;;8.52;36.23;100750.31;4477222;31;33412;-82
2022/03/24 06:22:50;;;;;;;18.85;8.18;;;;;;;8.70;35.83;100746.44;4477157;31;34089;-82
2022/03/24 06:25:18;;;;;;;25.25;9.10;;;;;;;8.82;35.16;100742.66;4462985;31;33493;-82
2022/03/24 06:27:53;;;;;;;26.40;9.68;;;;;;;9.40;36.96;100734.31;4484977;31;32704;-82
2022/03/24 06:30:21;;;;;;;21.98;9.15;;;;;;;9.49;36.82;100743.75;4490203;31;34257;-82
2022/03/24 06:32:48;;;;;;;16.25;8.60;;;;;;;9.65;34.83;100744.25;4477817;31;33056;-82
2022/03/24 06:35:16;;;;;;;18.12;8.95;;;;;;;9.86;33.37;100733.16;4481621;31;33336;-82
2022/03/24 06:37:44;;;;;;;16.55;9.23;;;;;;;10.23;33.90;100730.41;4478660;31;34671;-82
2022/03/24 06:40:14;;;;;;;19.65;9.52;;;;;;;10.69;35.45;100726.50;4485911;31;33097;-82
2022/03/24 06:42:42;;;;;;;15.50;9.05;;;;;;;10.78;34.64;100722.72;4490975;31;33564;-82
2022/03/24 06:45:11;;;;;;;16.05;8.85;;;;;;;11.03;33.92;100721.06;4491359;31;34483;-82
2022/03/24 06:47:40;;;;;;;18.80;9.60;;;;;;;11.20;32.73;100717.91;4489646;31;33691;-82
2022/03/24 06:50:12;;;;;;;13.88;8.88;;;;;;;11.56;31.72;100716.75;4489773;31;33592;-82
2022/03/24 06:52:41;;;;;;;22.27;9.98;;;;;;;11.86;32.77;100723.66;4477504;31;33305;-82
2022/03/24 06:55:09;;;;;;;20.80;8.98;;;;;;;12.34;32.85;100722.84;4477761;31;33930;-82
2022/03/24 06:57:37;;;;;;;17.80;9.45;;;;;;;12.68;30.62;100725.16;4490642;31;33888;-82
2022/03/24 07:00:06;;;;;;;20.92;9.07;;;;;;;12.97;30.73;100723.19;4492154;31;33679;-82
2022/03/24 07:02:34;;;;;;;13.55;8.45;;;;;;;13.15;29.96;100717.16;4491442;31;33367;-82
2022/03/24 07:05:02;;;;;;;21.77;8.65;;;;;;;13.41;28.51;100708.16;4490032;31;33636;-82
2022/03/24 07:07:30;;;;;;;14.13;7.60;;;;;;;13.70;27.59;100706.09;4491192;31;33592;-82
2022/03/24 07:09:57;;;;;;;11.20;6.82;;;;;;;13.94;25.42;100706.84;4492734;31;33854;-82
2022/03/24 07:12:25;;;;;;;12.40;7.70;;;;;;;14.28;24.67;100703.56;4488498;31;31716;-83
2022/03/24 07:14:52;;;;;;;11.90;7.18;;;;;;;14.57;24.49;100691.63;4478209;31;32772;-82
2022/03/24 07:17:20;;;;;;;12.50;5.82;;;;;;;14.72;23.61;100703.38;4477874;31;33713;-83
2022/03/24 07:19:47;;;;;;;12.18;7.65;;;;;;;14.97;22.14;100693.31;4478715;31;32486;-83
2022/03/24 07:22:16;;;;;;;18.35;7.35;;;;;;;15.17;21.89;100694.16;4475415;31;32722;-82
2022/03/24 07:24:44;;;;;;;11.50;7.18;;;;;;;15.24;21.34;100698.22;4481445;31;33731;-82
2022/03/24 07:27:14;;;;;;;11.35;7.12;;;;;;;15.71;20.72;100695.03;4491541;31;34988;-81
2022/03/24 07:29:42;;;;;;;12.07;7.37;;;;;;;15.80;20.50;100695.44;4488059;31;33116;-83
2022/03/24 07:32:10;;;;;;;12.02;7.62;;;;;;;15.84;19.90;100686.34;4467519;31;31850;-83
2022/03/24 07:34:38;;;;;;;12.32;7.97;;;;;;;16.24;19.67;100688.75;4480246;31;34108;-83
2022/03/24 07:37:07;;;;;;;13.10;7.55;;;;;;;16.34;20.11;100689.97;4493076;31;33935;-82
2022/03/24 07:39:34;;;;;;;12.85;7.07;;;;;;;16.41;19.08;100691.34;4491379;31;33872;-82
2022/03/24 07:42:02;;;;;;;11.85;7.40;;;;;;;16.88;19.27;100685.28;4483076;31;33672;-83
2022/03/24 07:44:30;;;;;;;12.32;7.80;;;;;;;16.91;20.73;100684.25;4478913;31;33546;-82
2022/03/24 07:46:58;;;;;;;14.75;8.45;;;;;;;17.08;19.57;100685.00;4466157;31;32541;-85
2022/03/24 07:49:31;;;;;;;9.85;7.07;;;;;;;17.53;18.33;100686.00;4473971;31;33220;-85
2022/03/24 07:52:02;;;;;;;18.80;8.43;;;;;;;17.50;18.43;100686.16;4477020;31;32742;-85
2022/03/24 07:55:09;;;;;;;13.65;7.68;;;;;;;17.28;18.28;100688.34;4491093;31;33835;-85
2022/03/24 07:57:37;;;;;;;11.40;7.70;;;;;;;17.64;18.37;100682.69;4409505;32;33218;-85
2022/03/24 08:00:05;;;;;;;13.62;8.32;;;;;;;17.81;17.59;100671.91;4410316;32;33197;-85
2022/03/24 08:02:42;;;;;;;14.57;8.85;;;;;;;18.12;17.34;100678.91;4441704;31;32360;-84
2022/03/24 08:05:09;;;;;;;11.10;7.10;;;;;;;18.17;17.62;100668.78;4477166;31;33690;-85
2022/03/24 08:07:37;;;;;;;12.50;8.00;;;;;;;18.09;17.87;100672.91;4491862;31;34038;-84
2022/03/24 08:10:08;;;;;;;11.75;7.45;;;;;;;18.13;18.71;100664.56;4466478;31;32724;-84
2022/03/24 08:12:35;;;;;;;12.00;7.80;;;;;;;18.34;17.31;100669.56;4494995;31;34219;-84
2022/03/24 08:15:04;;;;;;;14.68;8.25;;;;;;;18.49;17.49;100668.59;4492281;31;33529;-83
2022/03/24 08:17:31;;;;;;;14.07;8.10;;;;;;;18.50;18.01;100666.78;4490938;31;33541;-84
2022/03/24 08:19:59;;;;;;;14.75;8.32;;;;;;;18.91;17.96;100670.41;4477997;31;33681;-84
2022/03/24 08:22:28;;;;;;;13.18;8.10;;;;;;;19.04;18.05;100664.28;4471466;31;32764;-84
2022/03/24 08:24:55;;;;;;;11.15;8.18;;;;;;;18.96;18.81;100662.06;4492771;31;33479;-84
2022/03/24 08:27:22;;;;;;;15.80;9.07;;;;;;;18.78;18.44;100663.25;4494325;31;33805;-84
2022/03/24 08:29:51;;;;;;;12.95;7.90;;;;;;;19.04;18.30;100665.13;4487377;31;34134;-85
2022/03/24 08:32:20;;;;;;;16.90;8.45;;;;;;;19.31;17.21;100661.56;4465134;31;32768;-84
2022/03/24 08:34:48;;;;;;;13.68;8.50;;;;;;;19.31;17.17;100661.56;4478245;31;32884;-84
2022/03/24 08:37:16;;;;;;;15.27;8.15;;;;;;;19.32;17.50;100668.63;4480786;31;33409;-84
2022/03/24 08:39:44;;;;;;;14.15;8.65;;;;;;;19.60;17.34;100668.53;4492904;31;32462;-84
2022/03/24 08:42:12;;;;;;;13.23;8.48;;;;;;;19.94;16.70;100666.28;4490840;31;33022;-85
2022/03/24 08:44:40;;;;;;;15.02;8.93;;;;;;;19.66;16.28;100672.66;4464257;32;32840;-82
2022/03/24 08:47:07;;;;;;;13.10;8.75;;;;;;;19.94;17.00;100663.59;4478108;31;34279;-83
2022/03/24 08:49:35;;;;;;;10.57;7.75;;;;;;;20.17;16.24;100662.81;4465969;31;32713;-82
2022/03/24 08:52:03;;;;;;;15.75;7.47;;;;;;;20.58;16.04;100656.38;4489406;31;32373;-83
2022/03/24 08:54:32;;;;;;;10.95;7.25;;;;;;;20.53;15.77;100653.19;4488596;31;34530;-82
2022/03/24 08:57:00;;;;;;;12.05;6.87;;;;;;;20.83;15.64;100659.97;4481618;31;32352;-82
2022/03/24 08:59:28;;;;;;;9.38;6.00;;;;;;;20.54;16.81;100657.56;4479568;31;32931;-80
2022/03/24 09:01:58;;;;;;;13.57;6.90;;;;;;;20.52;14.83;100645.25;4478383;31;33895;-81
2022/03/24 09:04:26;;;;;;;14.18;7.62;;;;;;;20.96;14.34;100655.44;4477868;31;34496;-80
2022/03/24 09:06:54;;;;;;;11.73;6.18;;;;;;;20.74;14.79;100649.91;4476479;31;33101;-81
2022/03/24 09:09:22;;;;;;;8.50;5.65;;;;;;;21.19;14.32;100651.06;4490901;31;33481;-81
2022/03/24 09:11:50;;;;;;;13.85;7.37;;;;;;;21.39;13.60;100657.66;4476841;31;32211;-82
2022/03/24 09:14:19;;;;;;;13.62;7.72;;;;;;;21.14;13.28;100651.41;4475584;31;33998;-82
2022/03/24 09:16:46;;;;;;;12.10;6.65;;;;;;;21.36;13.63;100652.50;4488730;31;33751;-82
2022/03/24 09:19:16;;;;;;;11.52;6.85;;;;;;;21.08;13.59;100649.19;4477343;31;33028;-82
2022/03/24 09:21:44;;;;;;;11.15;6.15;;;;;;;21.29;13.48;100651.22;4491599;31;33998;-82
2022/03/24 09:24:12;;;;;;;11.52;5.75;;;;;;;21.44;13.59;100644.72;4488154;31;33794;-82
2022/03/24 09:26:40;;;;;;;8.32;5.85;;;;;;;21.40;13.08;100652.16;4475934;31;34555;-82
2022/03/24 09:29:09;;;;;;;9.15;6.00;;;;;;;21.35;13.02;100656.16;4478225;31;34291;-82
2022/03/24 09:31:36;;;;;;;9.95;6.62;;;;;;;21.46;13.30;100648.16;4466703;31;33787;-82
2022/03/24 09:34:05;;;;;;;10.35;6.55;;;;;;;21.53;13.89;100654.78;4490339;31;33522;-82
2022/03/24 09:36:32;;;;;;;8.98;6.32;;;;;;;21.51;13.52;100645.97;4489182;31;34006;-82
2022/03/24 09:39:00;;;;;;;10.82;6.55;;;;;;;21.68;13.40;100653.59;4490061;31;34872;-81
2022/03/24 09:41:29;;;;;;;12.37;7.50;;;;;;;21.82;13.73;100654.37;4493688;31;34172;-82
2022/03/24 09:43:58;;;;;;;8.23;6.53;;;;;;;21.78;13.41;100647.53;4492421;31;33638;-82
2022/03/24 09:46:29;;;;;;;11.70;6.97;;;;;;;21.88;13.44;100651.19;4492995;31;33356;-82
2022/03/24 09:48:57;;;;;;;12.05;7.18;;;;;;;21.84;13.76;100642.53;4476641;31;33663;-82
2022/03/24 09:51:29;;;;;;;10.90;6.93;;;;;;;21.73;14.49;100651.41;4493368;31;32930;-82
2022/03/24 09:53:57;;;;;;;14.00;7.87;;;;;;;21.96;13.73;100640.72;4479168;31;33486;-81
2022/03/24 09:56:24;;;;;;;19.08;8.52;;;;;;;21.99;14.21;100643.19;4492102;31;34518;-80
2022/03/24 09:58:52;;;;;;;12.68;8.10;;;;;;;22.26;13.85;100642.84;4467499;31;33251;-81
2022/03/24 10:01:20;;;;;;;13.50;8.65;;;;;;;22.04;14.27;100645.50;4478166;31;33735;-80
2022/03/24 10:04:06;;;;;;;11.73;7.95;;;;;;;22.54;13.85;100652.28;4491518;31;33694;-80
2022/03/24 10:06:34;;;;;;;12.43;8.15;;;;;;;22.67;15.09;100642.25;4492104;31;33575;-80
2022/03/24 10:09:04;;;;;;;18.23;8.43;;;;;;;22.74;14.06;100647.97;4492467;31;34809;-80
2022/03/24 10:11:31;;;;;;;13.73;8.02;;;;;;;23.09;13.81;100642.44;4480000;31;31827;-80
2022/03/24 10:14:03;;;;;;;10.68;8.93;;;;;;;23.25;13.37;100645.56;4480400;31;33429;-81
2022/03/24 10:16:34;;;;;;;11.75;8.05;;;;;;;23.02;13.92;100641.22;4491826;31;33875;-80
2022/03/24 10:19:07;;;;;;;11.65;7.10;;;;;;;23.00;13.82;100632.41;4490919;31;33105;-80
2022/03/24 10:21:38;;;;;;;13.80;8.07;;;;;;;23.34;13.70;100635.00;4491933;31;33134;-80
2022/03/24 10:24:14;;;;;;;16.23;8.18;;;;;;;23.57;12.92;100636.63;4477732;31;34489;-80
2022/03/24 10:26:43;;;;;;;12.63;7.37;;;;;;;23.50;13.32;100624.66;4491679;31;32404;-80
2022/03/24 10:29:13;;;;;;;9.52;7.32;;;;;;;23.81;12.71;100627.44;4492830;31;33489;-82
2022/03/24 10:31:43;;;;;;;13.52;7.70;;;;;;;23.61;13.65;100632.69;4491830;31;32570;-80
2022/03/24 10:34:12;;;;;;;12.45;7.65;;;;;;;23.80;12.14;100628.44;4479109;31;33372;-79
2022/03/24 10:36:43;;;;;;;9.80;8.00;;;;;;;23.50;12.30;100627.34;4493340;31;33299;-80
2022/03/24 10:39:11;;;;;;;8.32;6.97;;;;;;;23.62;12.27;100622.75;4489352;31;33235;-82
2022/03/24 10:41:40;;;;;;;11.95;6.68;;;;;;;23.68;12.52;100617.69;4476444;31;32984;-82
2022/03/24 10:44:12;;;;;;;13.13;7.40;;;;;;;23.36;13.09;100619.53;4478086;31;33817;-79
2022/03/24 10:46:42;;;;;;;13.35;7.07;;;;;;;23.39;12.89;100620.16;4478563;31;34410;-82
2022/03/24 10:49:29;;;;;;;10.85;8.23;;;;;;;23.67;12.76;100621.41;4481247;31;32519;-81
2022/03/24 10:52:00;;;;;;;7.57;6.55;;;;;;;24.03;12.09;100611.13;4478872;31;32749;-79
2022/03/24 10:54:47;;;;;;;14.73;7.85;;;;;;;24.32;12.50;100607.72;4480943;31;33317;-79
2022/03/24 10:57:16;;;;;;;12.13;7.50;;;;;;;24.16;12.95;100611.72;4489639;31;35148;-79
2022/03/24 10:59:58;;;;;;;10.55;7.37;;;;;;;24.22;12.31;100611.22;4490321;31;34508;-79
2022/03/24 11:02:28;;;;;;;14.65;7.50;;;;;;;24.48;11.77;100606.22;4489916;31;34442;-79
2022/03/24 11:05:00;;;;;;;14.63;7.80;;;;;;;24.43;11.81;100613.03;4478397;31;33661;-79
2022/03/24 11:07:28;;;;;;;12.77;7.32;;;;;;;24.53;11.76;100598.56;4477314;31;33965;-79
2022/03/24 11:09:56;;;;;;;8.93;7.00;;;;;;;24.38;12.67;100591.00;4463704;31;32658;-80
2022/03/24 11:12:36;;;;;;;10.10;7.68;;;;;;;24.91;11.30;100590.69;4481952;31;33786;-79
2022/03/24 11:15:07;;;;;;;9.65;7.40;;;;;;;24.86;11.19;100582.16;4492249;31;33826;-79
2022/03/24 11:17:38;;;;;;;9.07;7.03;;;;;;;24.57;12.09;100588.34;4479379;31;32783;-79
2022/03/24 11:20:09;;;;;;;12.40;8.43;;;;;;;24.55;12.40;100589.50;4477339;31;32671;-79
2022/03/24 11:22:59;;;;;;;11.30;7.72;;;;;;;24.87;11.57;100583.84;4493523;31;33921;-80
2022/03/24 11:25:29;;;;;;;10.88;8.35;;;;;;;25.20;11.57;100580.78;4476722;31;33510;-79
2022/03/24 11:27:58;;;;;;;14.40;8.63;;;;;;;24.92;11.61;100578.88;4491665;31;34386;-80
2022/03/24 11:30:27;;;;;;;13.60;9.07;;;;;;;25.01;11.53;100580.75;4492223;31;33555;-80